Riderwood, Alabama
Current Conditions -  °F | °C
As of 1:15 PM on Thursday 23 Oct 2014 (Local Time) from KDYA Reporting Station
Clear Clear  
Wind Chill: 70°   Ceiling: Unl
Heat Index: 70°   Visibility: 10mi
Dew Point: 39°   Wind: 0mph
Humidity: 32%   Direction: NA
Pressure: 30.09"   Gusts: NA
Location:  32.0668°N, 88.2133°W
Report Text: KDYA 231815Z AUTO 00000KT 10SM CLR 21/04 A3009 RMK AO2 T02120040
Loading
Personal Weather Stations






























Interactive Weather Map
Tropical Storm Tracking
New forecast layout! Learn more

10-Day Weather Forecast

Advertisements
Track Severe Weather on mobile